Time;durP1;ratioP1;P1;durP2;ratioP2;P2;SDS_P1;SDS_P2;PMS_P1;PMS_P2;Temp;Humidity;BMP_temperature;BMP_pressure;BME280_temperature;BME280_humidity;BME280_pressure;Samples;Min_cycle;Max_cycle;Signal;HPM_P1;HPM_P2
2022/01/03 00:00:51;;;;;;;;;;;;;;;9.73;66.56;101464.66;5072562;28;19916;-78
2022/01/03 00:03:36;;;;;;;;;;;;;;;9.75;66.77;101478.75;5076901;28;19912;-78
2022/01/03 00:06:20;;;;;;;;;;;;;;;9.73;66.18;101470.88;5074959;28;19916;-78
2022/01/03 00:09:05;;;;;;;;;;;;;;;9.75;66.77;101473.31;5073269;28;19912;-79
2022/01/03 00:11:49;;;;;;;;;;;;;;;9.77;66.93;101474.63;5077081;28;19913;-78
2022/01/03 00:14:34;;;;;;;;;;;;;;;9.76;67.88;101469.47;5075594;28;19912;-78
2022/01/03 00:17:19;;;;;;;;;;;;;;;9.74;66.83;101466.25;5074075;28;19916;-78
2022/01/03 00:20:04;;;;;;;;;;;;;;;9.75;66.26;101463.25;5076678;28;19912;-78
2022/01/03 00:22:50;;;;;;;;;;;;;;;9.70;63.90;101460.59;5075747;28;19912;-78
2022/01/03 00:25:35;;;;;;;;;;;;;;;9.62;64.93;101460.44;5073216;28;19912;-78
2022/01/03 00:28:26;;;;;;;;;;;;;;;9.65;66.57;101462.59;5077513;28;19916;-78
2022/01/03 00:31:12;;;;;;;;;;;;;;;9.70;66.96;101457.09;5069291;28;19920;-78
2022/01/03 00:33:57;;;;;;;;;;;;;;;9.71;65.96;101439.69;5068547;28;19912;-78
2022/01/03 00:36:46;;;;;;;;;;;;;;;9.66;66.99;101447.88;5074165;28;20308;-78
2022/01/03 00:39:31;;;;;;;;;;;;;;;9.74;68.46;101460.84;5075008;28;20384;-77
2022/01/03 00:42:16;;;;;;;;;;;;;;;9.70;66.73;101455.16;5072111;28;19912;-78
2022/01/03 00:45:01;;;;;;;;;;;;;;;9.75;67.57;101451.59;5061636;28;20003;-79
2022/01/03 00:47:47;;;;;;;;;;;;;;;9.77;68.26;101454.81;5072664;28;19916;-79
2022/01/03 00:50:32;;;;;;;;;;;;;;;9.82;67.80;101460.19;5073253;28;19916;-79
2022/01/03 00:53:17;;;;;;;;;;;;;;;9.79;68.11;101461.59;5077208;28;19912;-79
2022/01/03 00:56:03;;;;;;;;;;;;;;;9.67;65.57;101436.75;5075685;28;19913;-79
2022/01/03 00:59:10;;;;;;;;;;;;;;;9.69;66.78;101431.84;5073915;28;19916;-78
2022/01/03 01:01:58;;;;;;;;;;;;;;;9.75;68.20;101441.50;5073054;28;19912;-78
2022/01/03 01:04:45;;;;;;;;;;;;;;;9.77;67.57;101431.19;5074105;28;19912;-78
2022/01/03 01:07:30;;;;;;;;;;;;;;;9.72;66.58;101416.84;5050190;28;19916;-79
2022/01/03 01:10:15;;;;;;;;;;;;;;;9.69;66.11;101433.75;5075308;28;19920;-77
2022/01/03 01:13:01;;;;;;;;;;;;;;;9.70;67.14;101440.81;5049574;28;20107;-78
2022/01/03 01:15:46;;;;;;;;;;;;;;;9.73;68.89;101437.47;5037898;28;19912;-77
2022/01/03 01:18:36;;;;;;;;;;;;;;;9.75;68.58;101457.81;5059571;28;19917;-79
2022/01/03 01:21:22;;;;;;;;;;;;;;;9.78;68.97;101468.09;5059003;28;19916;-78
2022/01/03 01:24:11;;;;;;;;;;;;;;;9.79;69.16;101464.31;5037227;28;19913;-79
2022/01/03 01:29:59;;;;;;;;;;;;;;;9.73;67.90;101454.59;5071358;28;19912;-78
2022/01/03 01:32:48;;;;;;;;;;;;;;;9.76;69.07;101448.56;5070938;28;19916;-78
2022/01/03 01:35:42;;;;;;;;;;;;;;;9.77;68.77;101439.31;5071319;28;19912;-79
2022/01/03 01:38:32;;;;;;;;;;;;;;;9.77;69.28;101438.50;5057930;28;19916;-79
2022/01/03 01:41:18;;;;;;;;;;;;;;;9.76;70.27;101435.00;5060949;28;19913;-79
2022/01/03 01:44:08;;;;;;;;;;;;;;;9.76;70.03;101420.59;5058570;28;19912;-79
2022/01/03 01:46:54;;;;;;;;;;;;;;;9.71;69.20;101415.22;5057399;28;19920;-79
2022/01/03 01:49:44;;;;;;;;;;;;;;;9.73;69.72;101418.47;5041720;28;20289;-78
2022/01/03 01:52:33;;;;;;;;;;;;;;;9.75;69.47;101435.31;5039100;28;19917;-78
2022/01/03 01:55:19;;;;;;;;;;;;;;;9.73;69.01;101415.75;5037108;28;20365;-79
2022/01/03 01:58:20;;;;;;;;;;;;;;;9.76;68.39;101412.44;5046771;28;19916;-78
2022/01/03 02:01:07;;;;;;;;;;;;;;;9.76;69.75;101407.00;5058828;28;19912;-79
2022/01/03 02:04:11;;;;;;;;;;;;;;;9.78;70.53;101405.63;5057230;28;19916;-78
2022/01/03 02:06:57;;;;;;;;;;;;;;;9.82;70.03;101400.41;5075589;28;19912;-79
2022/01/03 02:09:42;;;;;;;;;;;;;;;9.87;71.05;101422.88;5061192;28;19912;-79
2022/01/03 02:12:27;;;;;;;;;;;;;;;9.86;70.03;101432.13;5045166;28;19912;-79
2022/01/03 02:15:14;;;;;;;;;;;;;;;9.87;70.37;101422.06;5073502;28;19920;-79
2022/01/03 02:17:59;;;;;;;;;;;;;;;9.83;69.83;101415.63;5089624;28;20300;-79
2022/01/03 02:20:43;;;;;;;;;;;;;;;9.84;71.16;101414.53;5078813;28;19912;-79
2022/01/03 02:23:29;;;;;;;;;;;;;;;9.81;70.83;101394.19;5061071;28;19912;-79
2022/01/03 02:26:15;;;;;;;;;;;;;;;9.86;71.65;101415.03;5051228;28;20304;-79
2022/01/03 02:29:00;;;;;;;;;;;;;;;9.90;72.06;101412.56;5065080;28;19913;-79
2022/01/03 02:31:45;;;;;;;;;;;;;;;9.88;71.30;101418.28;5079136;28;19912;-85
2022/01/03 02:34:30;;;;;;;;;;;;;;;9.84;68.96;101390.88;5064721;28;19916;-80
2022/01/03 02:37:15;;;;;;;;;;;;;;;9.77;69.93;101381.47;5061825;28;19924;-81
2022/01/03 02:40:03;;;;;;;;;;;;;;;9.83;71.08;101396.59;5062913;28;19912;-80
2022/01/03 02:42:48;;;;;;;;;;;;;;;9.85;71.27;101397.91;5064462;28;20296;-80
2022/01/03 02:45:33;;;;;;;;;;;;;;;9.79;70.10;101382.81;5059020;28;19912;-80
2022/01/03 02:48:23;;;;;;;;;;;;;;;9.81;69.95;101382.50;5067665;28;19912;-81
2022/01/03 02:51:10;;;;;;;;;;;;;;;9.83;69.26;101410.19;5066650;28;19912;-82
2022/01/03 02:53:55;;;;;;;;;;;;;;;9.86;68.73;101415.03;5072197;28;19912;-80
2022/01/03 02:56:42;;;;;;;;;;;;;;;9.85;68.28;101399.84;5066667;28;19912;-80
2022/01/03 02:59:26;;;;;;;;;;;;;;;9.77;67.16;101387.72;5065774;28;19912;-81
2022/01/03 03:02:10;;;;;;;;;;;;;;;9.77;66.07;101376.03;5064566;28;19916;-81
2022/01/03 03:04:57;;;;;;;;;;;;;;;9.79;68.23;101384.72;5067186;28;19912;-81
2022/01/03 03:07:42;;;;;;;;;;;;;;;9.81;68.31;101393.38;5056608;28;19913;-81
2022/01/03 03:10:27;;;;;;;;;;;;;;;9.77;67.38;101389.63;5078476;28;19912;-81
2022/01/03 03:13:16;;;;;;;;;;;;;;;9.75;67.07;101402.72;5067006;28;19916;-80
2022/01/03 03:16:00;;;;;;;;;;;;;;;9.75;66.73;101389.13;5080628;28;19913;-80
2022/01/03 03:18:45;;;;;;;;;;;;;;;9.74;66.93;101379.34;5063607;28;19916;-81
2022/01/03 03:21:30;;;;;;;;;;;;;;;9.77;68.16;101384.19;5068129;28;19916;-80
2022/01/03 03:24:15;;;;;;;;;;;;;;;9.81;68.83;101379.78;5065652;28;19913;-80
2022/01/03 03:27:00;;;;;;;;;;;;;;;9.80;67.67;101378.19;5063424;28;19912;-80
2022/01/03 03:29:45;;;;;;;;;;;;;;;9.83;67.49;101388.47;5082994;28;19912;-80
2022/01/03 03:32:30;;;;;;;;;;;;;;;9.88;67.68;101388.38;5066511;28;19912;-81
2022/01/03 03:35:15;;;;;;;;;;;;;;;9.87;67.52;101384.03;5064089;28;20397;-81
2022/01/03 03:38:00;;;;;;;;;;;;;;;9.85;67.31;101364.53;5067284;28;19916;-81
2022/01/03 03:40:47;;;;;;;;;;;;;;;9.87;67.12;101359.59;5065455;28;19912;-80
2022/01/03 03:43:33;;;;;;;;;;;;;;;9.88;67.41;101372.91;5063993;28;19912;-80
2022/01/03 03:46:22;;;;;;;;;;;;;;;9.88;67.17;101350.34;5067775;28;19916;-80
2022/01/03 03:49:09;;;;;;;;;;;;;;;9.87;67.40;101363.13;5070058;28;19912;-81
2022/01/03 03:51:54;;;;;;;;;;;;;;;9.91;66.91;101374.19;5063055;28;19912;-80
2022/01/03 03:54:39;;;;;;;;;;;;;;;9.88;66.42;101339.50;5077207;28;19912;-80
2022/01/03 03:57:24;;;;;;;;;;;;;;;9.85;65.77;101326.50;5078274;28;19916;-80
2022/01/03 04:00:15;;;;;;;;;;;;;;;9.83;65.92;101336.84;5063045;28;19912;-80
2022/01/03 04:03:02;;;;;;;;;;;;;;;9.82;66.33;101333.31;5066622;28;19912;-80
2022/01/03 04:05:48;;;;;;;;;;;;;;;9.83;66.10;101331.41;5065207;28;19955;-80
2022/01/03 04:08:32;;;;;;;;;;;;;;;9.82;65.92;101327.09;5063145;28;19912;-81
2022/01/03 04:11:18;;;;;;;;;;;;;;;9.79;66.14;101314.91;5066149;28;19912;-80
2022/01/03 04:14:03;;;;;;;;;;;;;;;9.79;65.99;101323.06;5064629;28;19912;-80
2022/01/03 04:16:48;;;;;;;;;;;;;;;9.77;65.62;101311.69;5065082;28;20376;-80
2022/01/03 04:19:33;;;;;;;;;;;;;;;9.78;66.48;101307.84;5067107;28;19916;-81
2022/01/03 04:22:17;;;;;;;;;;;;;;;9.74;65.23;101304.13;5065436;28;19912;-81
2022/01/03 04:25:02;;;;;;;;;;;;;;;9.73;65.63;101302.50;5060797;28;19916;-81
2022/01/03 04:27:48;;;;;;;;;;;;;;;9.75;65.16;101294.06;5072535;28;19913;-81
2022/01/03 04:30:32;;;;;;;;;;;;;;;9.69;64.72;101289.81;5062923;28;20292;-80
2022/01/03 04:33:18;;;;;;;;;;;;;;;9.69;64.83;101292.53;5062875;28;19913;-81
2022/01/03 04:36:03;;;;;;;;;;;;;;;9.71;66.09;101290.31;5081435;28;19937;-80
2022/01/03 04:38:48;;;;;;;;;;;;;;;9.72;66.16;101292.75;5045664;28;19915;-80
2022/01/03 04:41:33;;;;;;;;;;;;;;;9.77;66.92;101297.28;5061766;28;19913;-80
2022/01/03 04:44:18;;;;;;;;;;;;;;;9.79;66.80;101300.53;5090823;28;19916;-80
2022/01/03 04:47:03;;;;;;;;;;;;;;;9.77;66.25;101283.69;5086936;28;19912;-81
2022/01/03 04:49:47;;;;;;;;;;;;;;;9.72;65.87;101270.22;5078525;28;20377;-80
2022/01/03 04:52:32;;;;;;;;;;;;;;;9.73;65.80;101280.78;5077329;28;19912;-81
2022/01/03 04:55:16;;;;;;;;;;;;;;;9.75;65.15;101288.66;5097453;28;20284;-81
2022/01/03 04:58:01;;;;;;;;;;;;;;;9.74;65.59;101297.88;5063801;28;19932;-81
2022/01/03 05:00:47;;;;;;;;;;;;;;;9.77;65.91;101298.09;5061557;28;19912;-79
2022/01/03 05:03:32;;;;;;;;;;;;;;;9.77;65.88;101291.84;5065663;28;19912;-81
2022/01/03 05:06:19;;;;;;;;;;;;;;;9.82;66.41;101291.78;5062603;28;19912;-80
2022/01/03 05:09:04;;;;;;;;;;;;;;;9.77;65.33;101272.84;5061769;28;19912;-81
2022/01/03 05:11:49;;;;;;;;;;;;;;;9.74;64.86;101287.84;5081179;28;19913;-80
2022/01/03 05:14:34;;;;;;;;;;;;;;;9.78;65.86;101305.16;5059228;28;19912;-81
2022/01/03 05:17:19;;;;;;;;;;;;;;;9.78;65.52;101304.34;5057386;28;19916;-81
2022/01/03 05:20:04;;;;;;;;;;;;;;;9.78;65.67;101301.63;5087324;28;19912;-80
2022/01/03 05:22:48;;;;;;;;;;;;;;;9.80;65.63;101313.00;5062587;28;19912;-81
2022/01/03 05:25:33;;;;;;;;;;;;;;;9.82;66.54;101299.91;5074824;28;19912;-79
2022/01/03 05:28:18;;;;;;;;;;;;;;;9.84;66.32;101316.75;5075663;28;20392;-81
2022/01/03 05:31:03;;;;;;;;;;;;;;;9.81;67.04;101298.31;5062680;28;19913;-80
2022/01/03 05:33:49;;;;;;;;;;;;;;;9.89;67.59;101300.38;5061306;28;19912;-81
2022/01/03 05:36:33;;;;;;;;;;;;;;;9.91;67.43;101300.84;5055355;28;19912;-81
2022/01/03 05:39:19;;;;;;;;;;;;;;;9.89;67.12;101305.78;5047700;28;20301;-81
2022/01/03 05:42:03;;;;;;;;;;;;;;;9.91;67.41;101300.84;5078627;28;19920;-81
2022/01/03 05:44:51;;;;;;;;;;;;;;;9.92;67.27;101297.03;5070023;28;19912;-81
2022/01/03 05:47:36;;;;;;;;;;;;;;;9.91;66.92;101295.41;5065170;28;19913;-80
2022/01/03 05:50:21;;;;;;;;;;;;;;;9.89;66.43;101286.78;5066638;28;19916;-79
2022/01/03 05:53:06;;;;;;;;;;;;;;;9.93;67.15;101292.41;5069701;28;19912;-81
2022/01/03 05:55:51;;;;;;;;;;;;;;;9.94;67.94;101294.84;5079732;28;19912;-80
2022/01/03 05:58:37;;;;;;;;;;;;;;;9.96;68.42;101298.06;5066291;28;19916;-81
2022/01/03 06:01:23;;;;;;;;;;;;;;;9.96;69.22;101303.50;5055527;28;19916;-80
2022/01/03 06:04:21;;;;;;;;;;;;;;;9.96;68.88;101283.66;5068665;28;19913;-80
2022/01/03 06:07:07;;;;;;;;;;;;;;;9.92;68.07;101299.75;5068270;28;19912;-81
2022/01/03 06:09:56;;;;;;;;;;;;;;;9.98;69.20;101298.59;5069365;28;19912;-80
2022/01/03 06:12:42;;;;;;;;;;;;;;;9.96;68.86;101308.94;5066995;28;19916;-81
2022/01/03 06:15:27;;;;;;;;;;;;;;;9.96;68.89;101291.81;5065456;28;19912;-80
2022/01/03 06:18:13;;;;;;;;;;;;;;;9.94;68.04;101277.75;5085028;28;19928;-80
2022/01/03 06:21:00;;;;;;;;;;;;;;;9.92;67.52;101272.59;5067511;28;19912;-79
2022/01/03 06:23:50;;;;;;;;;;;;;;;9.88;66.22;101263.44;5064053;28;19912;-80
2022/01/03 06:26:36;;;;;;;;;;;;;;;9.88;66.58;101261.53;5067704;28;20462;-79
2022/01/03 06:29:21;;;;;;;;;;;;;;;9.85;65.94;101262.09;5066551;28;19912;-80
2022/01/03 06:32:07;;;;;;;;;;;;;;;9.85;65.55;101261.31;5064352;28;19912;-81
2022/01/03 06:34:53;;;;;;;;;;;;;;;9.84;65.51;101276.00;5068941;28;19916;-80
2022/01/03 06:37:38;;;;;;;;;;;;;;;9.84;66.09;101270.56;5064762;28;19917;-80
2022/01/03 06:40:31;;;;;;;;;;;;;;;9.82;66.34;101265.41;5063086;28;19912;-80
2022/01/03 06:43:16;;;;;;;;;;;;;;;9.80;66.54;101253.25;5065058;28;19917;-81
2022/01/03 06:46:01;;;;;;;;;;;;;;;9.80;66.32;101258.69;5064519;28;19912;-80
2022/01/03 06:48:46;;;;;;;;;;;;;;;9.79;66.24;101259.78;5079815;28;19912;-80
2022/01/03 06:51:34;;;;;;;;;;;;;;;9.82;66.98;101251.03;5092685;28;19912;-81
2022/01/03 06:54:20;;;;;;;;;;;;;;;9.78;67.06;101245.41;5063475;28;19913;-80
2022/01/03 06:57:11;;;;;;;;;;;;;;;9.82;66.81;101272.75;5063481;28;19912;-80
2022/01/03 06:59:57;;;;;;;;;;;;;;;9.81;66.98;101269.22;5070755;28;19912;-80
2022/01/03 07:02:42;;;;;;;;;;;;;;;9.80;66.82;101269.56;5065206;28;20388;-80
2022/01/03 07:05:27;;;;;;;;;;;;;;;9.79;67.41;101285.03;5076136;28;19912;-80
2022/01/03 07:08:13;;;;;;;;;;;;;;;9.81;69.04;101288.25;5083461;28;19916;-81
2022/01/03 07:10:57;;;;;;;;;;;;;;;9.85;68.73;101289.25;5082878;28;19912;-79
2022/01/03 07:13:48;;;;;;;;;;;;;;;9.78;67.24;101283.41;5078276;28;19916;-79
2022/01/03 07:19:37;;;;;;;;;;;;;;;9.78;67.58;101288.03;5080223;28;19917;-80
2022/01/03 07:22:22;;;;;;;;;;;;;;;9.77;66.38;101270.94;5077837;28;20361;-80
2022/01/03 07:25:07;;;;;;;;;;;;;;;9.78;66.58;101279.91;5080138;28;19912;-81
2022/01/03 07:27:52;;;;;;;;;;;;;;;9.79;66.59;101295.09;5079567;28;19916;-80
2022/01/03 07:30:36;;;;;;;;;;;;;;;8.45;64.32;101288.13;5074202;28;19912;-84
2022/01/03 07:33:21;;;;;;;;;;;;;;;7.95;66.58;101278.56;5082237;28;20381;-82
2022/01/03 07:36:05;;;;;;;;;;;;;;;6.91;68.83;101274.31;5080079;28;19912;-80
2022/01/03 07:38:49;;;;;;;;;;;;;;;6.77;70.71;101278.72;5077541;28;19916;-80
2022/01/03 07:41:34;;;;;;;;;;;;;;;6.62;70.79;101287.69;5081054;28;19912;-80
2022/01/03 07:44:18;;;;;;;;;;;;;;;6.45;71.56;101276.38;5079160;28;19912;-80
2022/01/03 07:47:03;;;;;;;;;;;;;;;6.19;72.96;101277.53;5075559;28;19916;-80
2022/01/03 07:49:47;;;;;;;;;;;;;;;5.66;73.39;101279.66;5076418;28;19913;-81
2022/01/03 07:52:32;;;;;;;;;;;;;;;5.52;75.18;101276.66;5076963;28;20396;-81
2022/01/03 07:55:16;;;;;;;;;;;;;;;5.35;75.56;101267.19;5075748;28;20381;-81
2022/01/03 07:58:03;;;;;;;;;;;;;;;5.66;75.89;101258.06;5073261;28;19920;-80
2022/01/03 08:00:47;;;;;;;;;;;;;;;5.55;75.97;101272.59;5076781;28;19916;-80
2022/01/03 08:03:32;;;;;;;;;;;;;;;5.38;76.14;101266.66;5075577;28;19916;-82
2022/01/03 08:06:16;;;;;;;;;;;;;;;5.33;77.63;101253.19;5074275;28;19916;-80
2022/01/03 08:09:01;;;;;;;;;;;;;;;5.66;76.03;101251.84;5075698;28;19912;-80
2022/01/03 08:11:45;;;;;;;;;;;;;;;5.74;75.17;101254.81;5076595;28;19912;-79
2022/01/03 08:14:29;;;;;;;;;;;;;;;5.68;75.58;101252.41;5060308;28;20292;-80
2022/01/03 08:17:14;;;;;;;;;;;;;;;5.61;75.97;101249.97;5076508;28;19913;-80
2022/01/03 08:19:58;;;;;;;;;;;;;;;5.45;76.46;101257.22;5070105;28;19916;-80
2022/01/03 08:22:43;;;;;;;;;;;;;;;5.48;76.93;101267.50;5073597;28;19912;-81
2022/01/03 08:25:30;;;;;;;;;;;;;;;5.51;77.62;101285.03;5074263;28;19913;-80
2022/01/03 08:28:14;;;;;;;;;;;;;;;5.33;77.71;101289.03;5069597;28;19912;-80
2022/01/03 08:30:59;;;;;;;;;;;;;;;5.36;76.79;101293.06;5074595;28;20328;-80
2022/01/03 08:33:43;;;;;;;;;;;;;;;5.49;77.23;101279.06;5077117;28;20515;-78
2022/01/03 08:36:28;;;;;;;;;;;;;;;5.59;76.03;101276.38;5073395;28;19912;-78
2022/01/03 08:39:12;;;;;;;;;;;;;;;5.62;76.96;101289.34;5076585;28;20300;-78
2022/01/03 08:41:57;;;;;;;;;;;;;;;5.34;77.11;101300.63;5075210;28;19916;-79
2022/01/03 08:44:41;;;;;;;;;;;;;;;5.33;77.56;101297.13;5074402;28;19912;-79
2022/01/03 08:47:26;;;;;;;;;;;;;;;5.75;76.49;101294.22;5073351;28;20284;-79
2022/01/03 08:50:11;;;;;;;;;;;;;;;5.54;76.85;101290.69;5081988;28;19912;-84
2022/01/03 08:52:56;;;;;;;;;;;;;;;6.16;75.12;101307.75;5085034;28;19931;-84
2022/01/03 08:55:41;;;;;;;;;;;;;;;6.34;73.47;101280.19;5081599;28;19912;-83
2022/01/03 08:58:26;;;;;;;;;;;;;;;6.28;73.99;101297.47;5080199;28;19916;-75
2022/01/03 09:01:11;;;;;;;;;;;;;;;6.50;73.78;101299.88;5080842;28;19912;-76
2022/01/03 09:03:56;;;;;;;;;;;;;;;6.09;75.26;101305.34;5097073;28;19916;-76
2022/01/03 09:06:41;;;;;;;;;;;;;;;6.41;73.78;101308.53;5079355;28;19916;-75
2022/01/03 09:09:27;;;;;;;;;;;;;;;6.77;73.53;101297.63;5087745;28;19912;-75
2022/01/03 09:12:11;;;;;;;;;;;;;;;6.99;71.82;101313.50;5076803;28;19920;-76
2022/01/03 09:14:58;;;;;;;;;;;;;;;7.03;70.74;101319.97;5073294;28;20384;-75
2022/01/03 09:17:43;;;;;;;;;;;;;;;6.72;71.26;101311.97;5070689;28;19911;-76
2022/01/03 09:20:27;;;;;;;;;;;;;;;6.53;73.57;101321.75;5069916;28;19912;-75
2022/01/03 09:23:26;;;;;;;;;;;;;;;6.79;72.47;101322.50;5075165;28;19912;-75
2022/01/03 09:29:16;;;;;;;;;;;;;;;6.55;73.13;101326.91;5068439;28;19912;-75
2022/01/03 09:32:01;;;;;;;;;;;;;;;6.30;74.42;101335.81;5074563;28;19912;-75
2022/01/03 09:34:45;;;;;;;;;;;;;;;6.58;73.36;101335.25;5064014;28;19912;-75
2022/01/03 09:37:29;;;;;;;;;;;;;;;6.27;75.37;101322.88;5071255;28;19917;-75
2022/01/03 09:40:14;;;;;;;;;;;;;;;6.20;74.90;101338.50;5074841;28;19916;-75
2022/01/03 09:42:59;;;;;;;;;;;;;;;6.24;75.29;101340.44;5072407;28;19916;-76
2022/01/03 09:45:46;;;;;;;;;;;;;;;6.27;75.79;101330.97;5076543;28;20369;-75
2022/01/03 09:48:32;;;;;;;;;;;;;;;6.01;76.35;101328.28;5074531;28;20288;-76
2022/01/03 09:51:17;;;;;;;;;;;;;;;6.36;74.95;101311.22;5082733;28;19912;-76
2022/01/03 09:54:03;;;;;;;;;;;;;;;6.44;75.02;101304.50;5074814;28;19912;-76
2022/01/03 09:56:49;;;;;;;;;;;;;;;6.63;74.53;101310.09;5063089;28;19916;-76
2022/01/03 09:59:34;;;;;;;;;;;;;;;6.88;73.49;101310.03;5070915;28;19916;-76
2022/01/03 10:02:19;;;;;;;;;;;;;;;6.69;74.34;101300.91;5089618;28;19912;-75
2022/01/03 10:05:05;;;;;;;;;;;;;;;6.97;73.20;101315.66;5079989;28;19915;-75
2022/01/03 10:07:50;;;;;;;;;;;;;;;7.02;73.66;101302.94;5070675;28;19913;-76
2022/01/03 10:10:35;;;;;;;;;;;;;;;7.07;71.90;101308.31;5074533;28;19920;-76
2022/01/03 10:13:19;;;;;;;;;;;;;;;6.63;73.88;101321.72;5074260;28;19912;-75
2022/01/03 10:16:04;;;;;;;;;;;;;;;6.25;75.33;101323.13;5073255;28;19913;-76
2022/01/03 10:18:48;;;;;;;;;;;;;;;6.32;76.28;101325.56;5071014;28;20293;-76
2022/01/03 10:21:41;;;;;;;;;;;;;;;6.30;76.36;101333.09;5075211;28;19912;-76
2022/01/03 10:24:36;;;;;;;;;;;;;;;6.39;76.90;101326.91;5073096;28;19912;-75
2022/01/03 10:27:22;;;;;;;;;;;;;;;6.37;76.24;101328.25;5075980;28;19912;-76
2022/01/03 10:30:06;;;;;;;;;;;;;;;6.47;76.50;101322.03;5078249;28;19912;-76
2022/01/03 10:32:51;;;;;;;;;;;;;;;6.78;75.38;101297.38;5076486;28;19931;-76
2022/01/03 10:35:36;;;;;;;;;;;;;;;6.48;76.55;101288.53;5079533;28;19912;-76
2022/01/03 10:38:41;;;;;;;;;;;;;;;6.79;75.56;101284.66;5078159;28;19916;-76
2022/01/03 10:41:26;;;;;;;;;;;;;;;6.73;75.10;101275.75;5075290;28;19912;-76
2022/01/03 10:44:11;;;;;;;;;;;;;;;6.54;75.84;101284.75;5079181;28;19916;-76
2022/01/03 10:46:56;;;;;;;;;;;;;;;6.77;74.92;101282.22;5071234;28;19912;-76
2022/01/03 10:49:41;;;;;;;;;;;;;;;6.67;76.00;101287.66;5075676;28;20278;-76
2022/01/03 10:52:28;;;;;;;;;;;;;;;6.81;75.04;101280.59;5079206;28;19912;-76
2022/01/03 10:55:20;;;;;;;;;;;;;;;6.67;76.60;101273.34;5077152;28;19913;-76
2022/01/03 10:58:06;;;;;;;;;;;;;;;6.63;75.76;101266.88;5075096;28;19913;-76
2022/01/03 11:00:50;;;;;;;;;;;;;;;6.28;77.00;101265.88;5078779;28;19912;-76
2022/01/03 11:03:42;;;;;;;;;;;;;;;6.39;77.92;101264.78;5076467;28;19912;-76
2022/01/03 11:12:24;;;;;;;;;;;;;;;6.14;77.64;101264.84;5075462;28;19919;-76
2022/01/03 11:15:21;;;;;;;;;;;;;;;6.28;78.60;101256.97;5073601;28;19995;-76
2022/01/03 11:18:08;;;;;;;;;;;;;;;6.59;76.79;101247.72;5076928;28;19912;-76
2022/01/03 11:21:13;;;;;;;;;;;;;;;6.85;75.82;101241.13;5075214;28;19916;-76
2022/01/03 11:24:03;;;;;;;;;;;;;;;6.89;74.65;101235.97;5077776;28;19912;-76
2022/01/03 11:26:48;;;;;;;;;;;;;;;6.74;76.43;101241.44;5075854;28;19913;-76
2022/01/03 11:29:33;;;;;;;;;;;;;;;6.95;75.05;101240.28;5074890;28;19916;-76
2022/01/03 11:32:17;;;;;;;;;;;;;;;6.92;74.50;101231.88;5090706;28;19913;-76
2022/01/03 11:35:01;;;;;;;;;;;;;;;6.94;74.51;101224.31;5078646;28;20292;-76
2022/01/03 11:37:47;;;;;;;;;;;;;;;7.01;74.01;101228.31;5079186;28;19916;-75
2022/01/03 11:40:32;;;;;;;;;;;;;;;6.89;74.90;101219.75;5077982;28;19920;-75
2022/01/03 11:43:17;;;;;;;;;;;;;;;6.98;74.00;101217.25;5084702;28;19912;-75
2022/01/03 11:46:01;;;;;;;;;;;;;;;6.92;75.53;101226.47;5093123;28;19912;-75
2022/01/03 11:48:46;;;;;;;;;;;;;;;6.84;75.82;101220.59;5080627;28;19912;-75
2022/01/03 11:51:32;;;;;;;;;;;;;;;6.93;76.01;101217.28;5074862;28;19912;-75
2022/01/03 11:54:18;;;;;;;;;;;;;;;6.83;75.64;101224.38;5078783;28;19912;-76
2022/01/03 11:57:06;;;;;;;;;;;;;;;6.73;75.78;101220.91;5084162;28;19916;-75
2022/01/03 12:06:25;;;;;;;;;;;;;;;6.86;74.75;101201.38;5075007;28;19912;-75
2022/01/03 12:09:17;;;;;;;;;;;;;;;7.19;74.44;101180.91;5072835;28;19912;-76
2022/01/03 12:12:02;;;;;;;;;;;;;;;7.85;71.67;101181.16;5076661;28;19912;-76
2022/01/03 12:14:47;;;;;;;;;;;;;;;8.19;70.07;101186.50;5074310;28;19912;-76
2022/01/03 12:17:42;;;;;;;;;;;;;;;7.72;71.13;101196.16;5085643;28;19916;-76
2022/01/03 12:20:40;;;;;;;;;;;;;;;7.48;72.92;101189.88;5081102;28;19916;-75
2022/01/03 12:23:45;;;;;;;;;;;;;;;7.55;72.44;101176.84;5078413;28;19912;-76
2022/01/03 12:26:29;;;;;;;;;;;;;;;7.19;73.81;101162.78;5072955;28;19917;-76
2022/01/03 12:29:14;;;;;;;;;;;;;;;7.24;73.82;101165.44;5072878;28;19912;-76
2022/01/03 12:32:10;;;;;;;;;;;;;;;7.28;73.89;101161.09;5070732;28;19911;-76
2022/01/03 12:35:10;;;;;;;;;;;;;;;7.34;73.29;101164.56;5087505;28;19912;-76
2022/01/03 12:38:04;;;;;;;;;;;;;;;7.49;72.56;101159.03;5081056;28;19912;-76
2022/01/03 12:40:50;;;;;;;;;;;;;;;7.48;73.20;101141.16;5093769;28;19916;-75
2022/01/03 12:43:37;;;;;;;;;;;;;;;7.35;74.18;101136.44;5073270;28;19917;-76
2022/01/03 12:46:22;;;;;;;;;;;;;;;7.38;73.51;101146.66;5070337;28;19916;-75
2022/01/03 12:49:36;;;;;;;;;;;;;;;7.27;73.72;101142.41;5074215;28;19912;-75
2022/01/03 12:52:21;;;;;;;;;;;;;;;7.36;73.27;101121.00;5056866;28;20300;-75
2022/01/03 12:55:06;;;;;;;;;;;;;;;7.31;73.33;101119.16;5076000;28;19912;-75
2022/01/03 12:57:50;;;;;;;;;;;;;;;7.14;74.21;101122.25;5071743;28;19913;-75
2022/01/03 13:01:03;;;;;;;;;;;;;;;7.23;74.31;101119.75;5076039;28;19916;-75
2022/01/03 13:03:49;;;;;;;;;;;;;;;7.27;74.86;101126.19;5082787;28;19912;-75
2022/01/03 13:06:35;;;;;;;;;;;;;;;7.32;74.61;101112.63;5089368;28;20376;-75
2022/01/03 13:09:19;;;;;;;;;;;;;;;7.41;73.71;101110.94;5071781;28;19912;-75
2022/01/03 13:12:05;;;;;;;;;;;;;;;7.40;72.95;101114.75;5074057;28;19912;-75
2022/01/03 13:14:58;;;;;;;;;;;;;;;7.58;71.78;101122.13;5081624;28;19916;-75
2022/01/03 13:17:43;;;;;;;;;;;;;;;7.17;73.72;101126.28;5071284;28;19916;-75
2022/01/03 13:20:27;;;;;;;;;;;;;;;7.42;72.49;101125.25;5073645;28;19917;-76
2022/01/03 13:23:17;;;;;;;;;;;;;;;7.67;71.88;101119.59;5073930;28;20291;-75
2022/01/03 13:26:02;;;;;;;;;;;;;;;7.28;73.55;101117.81;5070199;28;19912;-78
2022/01/03 13:28:51;;;;;;;;;;;;;;;7.23;74.46;101123.25;5077317;28;19912;-78
2022/01/03 13:31:39;;;;;;;;;;;;;;;7.29;73.65;101132.13;5071645;28;19912;-76
2022/01/03 13:34:25;;;;;;;;;;;;;;;7.37;74.21;101136.94;5064038;28;19913;-78
2022/01/03 13:37:10;;;;;;;;;;;;;;;7.53;73.46;101124.88;5069234;28;19912;-78
2022/01/03 13:39:56;;;;;;;;;;;;;;;6.93;74.69;101119.97;5065221;28;19921;-78
2022/01/03 13:42:47;;;;;;;;;;;;;;;7.06;75.15;101122.84;5068422;28;19912;-78
2022/01/03 13:51:59;;;;;;;;;;;;;;;7.31;74.00;101122.63;5068196;28;19912;-79
2022/01/03 13:54:44;;;;;;;;;;;;;;;7.49;75.07;101123.84;5069096;28;20308;-78
2022/01/03 13:57:32;;;;;;;;;;;;;;;7.36;74.23;101119.09;5062233;28;19912;-79
2022/01/03 14:00:18;;;;;;;;;;;;;;;7.54;74.18;101121.09;5076865;28;19916;-79
2022/01/03 14:03:03;;;;;;;;;;;;;;;7.78;72.20;101120.31;5076894;28;19916;-79
2022/01/03 14:05:48;;;;;;;;;;;;;;;7.47;73.81;101117.91;5075604;28;20368;-79
2022/01/03 14:08:42;;;;;;;;;;;;;;;7.13;75.50;101112.53;5079725;28;19916;-79
2022/01/03 14:11:27;;;;;;;;;;;;;;;7.33;74.59;101114.25;5077398;28;19912;-80
2022/01/03 14:14:13;;;;;;;;;;;;;;;7.42;73.73;101117.94;5074862;28;20292;-80
2022/01/03 14:17:01;;;;;;;;;;;;;;;7.05;75.34;101112.31;5077776;28;19912;-79
2022/01/03 14:19:46;;;;;;;;;;;;;;;7.16;75.28;101121.97;5077191;28;19916;-79
2022/01/03 14:22:39;;;;;;;;;;;;;;;7.16;75.06;101119.28;5074983;28;20392;-79
2022/01/03 14:25:24;;;;;;;;;;;;;;;7.05;75.26;101128.53;5078739;28;19916;-79
2022/01/03 14:28:09;;;;;;;;;;;;;;;7.00;76.09;101134.00;5069492;28;19913;-79
2022/01/03 14:30:53;;;;;;;;;;;;;;;7.01;76.17;101128.28;5067558;28;19921;-79
2022/01/03 14:33:39;;;;;;;;;;;;;;;6.95;76.97;101124.03;5069136;28;19913;-79
2022/01/03 14:36:23;;;;;;;;;;;;;;;6.78;77.09;101124.38;5070792;28;19916;-78
2022/01/03 14:39:08;;;;;;;;;;;;;;;6.75;77.23;101119.56;5077348;28;19916;-80
2022/01/03 14:41:59;;;;;;;;;;;;;;;6.79;77.19;101123.31;5074268;28;20293;-79
2022/01/03 14:44:44;;;;;;;;;;;;;;;6.60;78.23;101119.66;5079446;28;19916;-79
2022/01/03 14:47:28;;;;;;;;;;;;;;;6.60;78.15;101116.94;5075996;28;19912;-79
2022/01/03 14:50:13;;;;;;;;;;;;;;;6.64;77.73;101118.00;5075708;28;19912;-78
2022/01/03 14:52:59;;;;;;;;;;;;;;;6.66;78.58;101126.63;5079789;28;20280;-79
2022/01/03 14:55:44;;;;;;;;;;;;;;;6.52;79.24;101122.91;5078199;28;20385;-78